Time;durP1;ratioP1;P1;durP2;ratioP2;P2;SDS_P1;SDS_P2;PMS_P1;PMS_P2;Temp;Humidity;BMP_temperature;BMP_pressure;BME280_temperature;BME280_humidity;BME280_pressure;Samples;Min_cycle;Max_cycle;Signal;HPM_P1;HPM_P2
2023/08/23 00:00:13;;;;;;;1.55;1.05;;;20.70;58.50;22.40;101917.00;;;;5044513;28;20686;-78
2023/08/23 00:02:40;;;;;;;1.35;0.90;;;20.70;58.60;22.40;101922.00;;;;5042977;28;20752;-78
2023/08/23 00:05:08;;;;;;;1.27;1.10;;;20.70;58.50;22.40;101918.00;;;;5044681;28;20573;-79
2023/08/23 00:07:35;;;;;;;1.20;0.90;;;20.70;58.60;22.40;101920.00;;;;5045225;28;20196;-79
2023/08/23 00:10:02;;;;;;;1.50;1.33;;;20.60;59.10;22.30;101924.00;;;;5041551;28;20203;-78
2023/08/23 00:12:29;;;;;;;1.50;1.02;;;20.60;58.60;22.30;101920.00;;;;5047635;28;20223;-79
2023/08/23 00:14:56;;;;;;;0.90;0.85;;;20.60;58.70;22.30;101920.00;;;;5045802;28;20203;-79
2023/08/23 00:17:24;;;;;;;2.85;1.20;;;20.60;58.70;22.30;101914.00;;;;5046475;28;20195;-78
2023/08/23 00:19:51;;;;;;;0.98;0.80;;;20.60;58.80;22.30;101912.00;;;;5044902;28;20191;-79
2023/08/23 00:22:18;;;;;;;3.25;1.15;;;20.60;58.80;22.30;101902.00;;;;5046987;28;20204;-79
2023/08/23 00:24:45;;;;;;;1.23;0.90;;;20.60;58.80;22.30;101914.00;;;;5044612;28;20197;-78
2023/08/23 00:27:12;;;;;;;1.27;1.00;;;20.50;58.80;22.20;101905.00;;;;5046443;28;20586;-79
2023/08/23 00:29:39;;;;;;;1.70;0.88;;;20.50;58.90;22.20;101907.00;;;;5047743;28;20666;-78
2023/08/23 00:32:07;;;;;;;3.00;1.00;;;20.50;58.90;22.20;101909.00;;;;5045680;28;20195;-79
2023/08/23 00:34:35;;;;;;;1.65;1.15;;;20.50;58.90;22.20;101907.00;;;;5047447;28;20253;-79
2023/08/23 00:37:02;;;;;;;1.38;0.80;;;20.50;58.90;22.20;101901.00;;;;5046784;28;20207;-79
2023/08/23 00:39:29;;;;;;;1.23;0.90;;;20.50;58.90;22.20;101900.00;;;;5043869;28;20206;-79
2023/08/23 00:41:56;;;;;;;1.35;0.90;;;20.40;59.00;22.10;101902.00;;;;5040479;28;20196;-79
2023/08/23 00:44:23;;;;;;;1.40;0.90;;;20.40;58.90;22.10;101893.00;;;;5044409;28;20566;-79
2023/08/23 00:46:51;;;;;;;1.60;1.02;;;20.40;59.00;22.10;101885.00;;;;5040988;28;20287;-78
2023/08/23 00:49:18;;;;;;;1.45;0.90;;;20.40;59.00;22.10;101885.00;;;;5034697;28;20199;-79
2023/08/23 00:51:48;;;;;;;1.20;1.00;;;20.40;59.10;22.10;101888.00;;;;5047017;28;20206;-78
2023/08/23 00:54:15;;;;;;;1.30;0.60;;;20.40;59.20;22.10;101892.00;;;;5045296;28;20251;-78
2023/08/23 00:56:42;;;;;;;1.55;0.98;;;20.40;59.10;22.10;101888.00;;;;5037667;28;20195;-78
2023/08/23 00:59:09;;;;;;;1.38;0.88;;;20.40;59.10;22.10;101893.00;;;;5044685;28;20204;-79
2023/08/23 01:01:36;;;;;;;1.02;0.90;;;20.30;59.40;22.00;101885.00;;;;5044729;28;20661;-78
2023/08/23 01:04:04;;;;;;;1.67;0.80;;;20.30;59.10;22.00;101874.00;;;;5034536;28;20582;-79
2023/08/23 01:06:47;;;;;;;1.38;1.00;;;20.30;59.20;21.90;101874.00;;;;5051035;28;21051;-79
2023/08/23 01:09:30;;;;;;;1.95;0.95;;;20.30;59.30;21.90;101871.00;;;;5049054;28;20564;-79
2023/08/23 01:12:07;;;;;;;1.45;0.90;;;20.30;59.30;21.90;101878.00;;;;5047125;28;20204;-78
2023/08/23 01:14:46;;;;;;;1.25;0.80;;;20.30;59.30;21.90;101873.00;;;;5046188;28;20195;-79
2023/08/23 01:17:19;;;;;;;1.83;0.80;;;20.30;59.40;21.90;101876.00;;;;5042638;28;20250;-78
2023/08/23 01:19:50;;;;;;;3.38;1.00;;;20.30;59.20;21.90;101884.00;;;;5048902;28;20202;-79
2023/08/23 01:22:19;;;;;;;2.80;1.35;;;20.30;59.30;21.90;101882.00;;;;5049654;28;20672;-78
2023/08/23 01:24:49;;;;;;;1.08;0.88;;;20.30;59.30;21.90;101887.00;;;;5049956;28;20200;-78
2023/08/23 01:27:17;;;;;;;1.60;0.95;;;20.20;59.30;21.90;101883.00;;;;5049860;28;20206;-79
2023/08/23 01:29:45;;;;;;;0.98;0.90;;;20.20;59.30;21.90;101885.00;;;;5047048;28;20660;-78
2023/08/23 01:32:35;;;;;;;1.30;1.13;;;20.20;59.40;21.70;101885.00;;;;5050096;28;20288;-79
2023/08/23 01:35:11;;;;;;;2.83;1.08;;;20.20;59.60;21.80;101882.00;;;;5049205;28;20563;-79
2023/08/23 01:37:40;;;;;;;1.20;1.10;;;20.20;59.40;21.80;101884.00;;;;5051231;28;20203;-78
2023/08/23 01:40:11;;;;;;;2.53;1.05;;;20.10;59.40;21.80;101887.00;;;;5050919;28;20203;-79
2023/08/23 01:42:40;;;;;;;1.55;1.20;;;20.10;59.50;21.80;101893.00;;;;5050514;28;20229;-79
2023/08/23 01:45:09;;;;;;;1.05;0.93;;;20.10;59.40;21.80;101885.00;;;;5050397;28;20211;-78
2023/08/23 01:47:36;;;;;;;1.50;1.02;;;20.10;59.50;21.80;101882.00;;;;5050446;28;20199;-78
2023/08/23 01:50:03;;;;;;;1.13;0.85;;;20.10;59.60;21.80;101882.00;;;;5049154;28;20203;-78
2023/08/23 01:52:30;;;;;;;1.67;1.02;;;20.10;59.60;21.80;101884.00;;;;5050713;28;20198;-79
2023/08/23 01:54:58;;;;;;;2.47;0.90;;;20.00;59.50;21.80;101875.00;;;;5050481;28;20223;-79
2023/08/23 01:57:26;;;;;;;1.23;0.80;;;20.10;59.60;21.80;101879.00;;;;5048045;28;20199;-79
2023/08/23 01:59:55;;;;;;;0.93;0.70;;;20.10;59.70;21.80;101874.00;;;;5048474;28;20198;-78
2023/08/23 02:02:22;;;;;;;1.30;0.70;;;20.00;59.60;21.80;101876.00;;;;5046581;28;20215;-78
2023/08/23 02:04:49;;;;;;;1.30;1.00;;;20.00;59.60;21.70;101876.00;;;;5049356;28;20196;-78
2023/08/23 02:07:16;;;;;;;1.83;0.95;;;20.00;59.60;21.70;101870.00;;;;5049534;28;20737;-78
2023/08/23 02:09:43;;;;;;;3.20;1.20;;;20.00;59.70;21.70;101862.00;;;;5049144;28;20828;-78
2023/08/23 02:12:10;;;;;;;2.13;1.13;;;20.00;59.70;21.70;101863.00;;;;5049005;28;20210;-79
2023/08/23 02:14:38;;;;;;;2.03;1.48;;;20.00;59.70;21.70;101877.00;;;;5049368;28;20238;-78
2023/08/23 02:17:05;;;;;;;1.95;1.25;;;20.00;59.80;21.70;101874.00;;;;5047455;28;20203;-78
2023/08/23 02:19:32;;;;;;;3.45;1.27;;;19.90;59.70;21.70;101865.00;;;;5041423;28;20572;-78
2023/08/23 02:21:59;;;;;;;1.10;1.00;;;19.90;59.80;21.60;101865.00;;;;5041654;28;20208;-78
2023/08/23 02:24:26;;;;;;;1.67;1.13;;;19.90;59.80;21.60;101865.00;;;;5048601;28;20203;-78
2023/08/23 02:26:52;;;;;;;2.38;1.35;;;19.90;59.80;21.60;101856.00;;;;5048991;28;20207;-79
2023/08/23 02:29:19;;;;;;;1.92;1.58;;;19.90;59.90;21.60;101862.00;;;;5039975;28;20199;-78
2023/08/23 02:31:48;;;;;;;1.70;1.42;;;19.90;59.90;21.60;101858.00;;;;5049726;28;20192;-79
2023/08/23 02:34:15;;;;;;;1.40;1.30;;;19.90;60.00;21.60;101855.00;;;;5048781;28;20230;-79
2023/08/23 02:36:42;;;;;;;1.27;1.10;;;19.90;60.00;21.60;101849.00;;;;5043616;28;20200;-79
2023/08/23 02:39:11;;;;;;;2.22;1.00;;;19.90;60.00;21.60;101850.00;;;;5047611;28;20286;-79
2023/08/23 02:41:38;;;;;;;1.35;1.15;;;19.90;60.10;21.60;101851.00;;;;5043617;28;20197;-79
2023/08/23 02:44:05;;;;;;;2.50;1.55;;;19.90;60.10;21.60;101847.00;;;;5043538;28;20196;-79
2023/08/23 02:46:32;;;;;;;1.33;1.23;;;19.90;60.20;21.60;101847.00;;;;5048248;28;20206;-80
2023/08/23 02:49:00;;;;;;;1.23;1.13;;;19.80;60.10;21.60;101853.00;;;;5049175;28;20203;-80
2023/08/23 02:51:27;;;;;;;2.05;1.50;;;19.90;60.20;21.60;101859.00;;;;5049148;28;20196;-80
2023/08/23 02:53:54;;;;;;;2.28;1.10;;;19.80;60.20;21.60;101857.00;;;;5045643;28;20227;-80
2023/08/23 02:56:21;;;;;;;2.05;1.85;;;19.80;60.20;21.60;101843.00;;;;5043490;28;20211;-79
2023/08/23 02:58:49;;;;;;;1.95;1.75;;;19.80;60.30;21.60;101840.00;;;;5047304;28;20207;-80
2023/08/23 03:01:16;;;;;;;3.50;1.90;;;19.80;60.30;21.60;101841.00;;;;5047975;28;20667;-80
2023/08/23 03:03:43;;;;;;;1.65;1.50;;;19.80;60.30;21.60;101839.00;;;;5048151;28;20199;-80
2023/08/23 03:06:11;;;;;;;1.48;1.33;;;19.80;60.30;21.60;101834.00;;;;5043332;28;20203;-79
2023/08/23 03:08:38;;;;;;;2.75;1.73;;;19.80;60.40;21.60;101830.00;;;;5039628;28;20200;-80
2023/08/23 03:11:07;;;;;;;2.25;1.70;;;19.80;60.40;21.50;101831.00;;;;5046348;28;20193;-79
2023/08/23 03:13:35;;;;;;;2.28;1.83;;;19.80;60.40;21.50;101827.00;;;;5037760;28;20234;-79
2023/08/23 03:16:03;;;;;;;2.75;2.05;;;19.80;60.40;21.50;101828.00;;;;5042756;28;20205;-79
2023/08/23 03:18:30;;;;;;;2.50;2.15;;;19.80;60.50;21.60;101840.00;;;;5045859;28;20537;-80
2023/08/23 03:20:57;;;;;;;2.92;2.03;;;19.80;60.50;21.50;101835.00;;;;5043055;28;20196;-79
2023/08/23 03:23:25;;;;;;;2.90;1.85;;;19.80;60.50;21.50;101833.00;;;;5043553;28;20218;-77
2023/08/23 03:25:52;;;;;;;2.30;1.85;;;19.80;60.60;21.50;101843.00;;;;5039791;28;20215;-77
2023/08/23 03:28:20;;;;;;;2.25;1.77;;;19.80;60.50;21.50;101841.00;;;;5044168;28;20905;-80
2023/08/23 03:30:46;;;;;;;3.90;2.03;;;19.80;60.50;21.50;101832.00;;;;5035465;28;20283;-77
2023/08/23 03:33:14;;;;;;;2.28;1.90;;;19.80;60.50;21.50;101834.00;;;;5035501;28;20219;-77
2023/08/23 03:35:41;;;;;;;2.30;1.90;;;19.80;60.60;21.50;101836.00;;;;5045980;28;20195;-77
2023/08/23 03:38:08;;;;;;;2.85;2.20;;;19.80;60.60;21.50;101837.00;;;;5047751;28;20553;-78
2023/08/23 03:40:40;;;;;;;3.13;1.80;;;19.80;60.70;21.50;101838.00;;;;5046313;28;20690;-77
2023/08/23 03:43:07;;;;;;;2.70;1.67;;;19.80;60.80;21.50;101834.00;;;;5043039;28;20648;-77
2023/08/23 03:45:35;;;;;;;2.17;1.70;;;19.80;60.70;21.50;101834.00;;;;5042410;28;20196;-78
2023/08/23 03:48:02;;;;;;;1.90;1.67;;;19.80;60.70;21.50;101836.00;;;;5047297;28;20207;-78
2023/08/23 03:50:29;;;;;;;2.00;1.50;;;19.80;60.80;21.50;101835.00;;;;5043718;28;20659;-78
2023/08/23 03:52:56;;;;;;;1.95;1.60;;;19.70;60.80;21.50;101833.00;;;;5035526;28;20541;-78
2023/08/23 03:55:23;;;;;;;4.65;1.90;;;19.80;61.50;21.50;101830.00;;;;5048093;28;20196;-78
2023/08/23 03:57:51;;;;;;;2.03;1.70;;;19.80;60.80;21.50;101835.00;;;;5047938;28;20192;-78
2023/08/23 04:00:19;;;;;;;2.15;1.90;;;19.80;60.90;21.50;101834.00;;;;5045987;28;20204;-78
2023/08/23 04:02:47;;;;;;;2.22;2.00;;;19.80;60.90;21.50;101839.00;;;;5047775;28;20206;-78
2023/08/23 04:05:14;;;;;;;1.67;1.50;;;19.70;60.80;21.50;101841.00;;;;5046673;28;20214;-78
2023/08/23 04:07:42;;;;;;;2.72;2.17;;;19.80;60.90;21.50;101843.00;;;;5046986;28;20210;-78
2023/08/23 04:10:10;;;;;;;2.78;1.70;;;19.70;61.50;21.50;101847.00;;;;5047899;28;20198;-78
2023/08/23 04:12:37;;;;;;;3.25;1.70;;;19.80;60.90;21.50;101842.00;;;;5047259;28;20227;-77
2023/08/23 04:15:07;;;;;;;2.42;1.75;;;19.70;60.80;21.40;101846.00;;;;5047047;28;20584;-78
2023/08/23 04:17:34;;;;;;;2.05;1.40;;;19.70;60.90;21.40;101845.00;;;;5047580;28;20287;-78
2023/08/23 04:20:01;;;;;;;1.83;1.40;;;19.70;60.90;21.40;101840.00;;;;5047314;28;20206;-78
2023/08/23 04:22:30;;;;;;;2.17;1.67;;;19.70;60.90;21.40;101850.00;;;;5043347;28;20210;-78
2023/08/23 04:24:57;;;;;;;2.20;1.70;;;19.70;60.90;21.40;101856.00;;;;5046000;28;20194;-78
2023/08/23 04:27:24;;;;;;;2.08;1.60;;;19.70;60.90;21.40;101854.00;;;;5044235;28;20204;-78
2023/08/23 04:29:51;;;;;;;1.88;1.70;;;19.60;60.80;21.40;101848.00;;;;5044287;28;20542;-78
2023/08/23 04:32:20;;;;;;;2.03;1.58;;;19.60;61.00;21.40;101840.00;;;;5047939;28;20206;-78
2023/08/23 04:34:47;;;;;;;4.25;1.75;;;19.60;61.00;21.40;101841.00;;;;5047048;28;20219;-78
2023/08/23 04:37:14;;;;;;;2.03;1.70;;;19.60;60.90;21.40;101844.00;;;;5035940;28;20230;-78
2023/08/23 04:39:41;;;;;;;2.15;1.67;;;19.60;60.90;21.40;101849.00;;;;5048485;28;20210;-78
2023/08/23 04:42:08;;;;;;;1.95;1.70;;;19.60;61.00;21.30;101841.00;;;;5049781;28;20585;-78
2023/08/23 04:44:35;;;;;;;2.90;2.03;;;19.60;61.00;21.40;101845.00;;;;5050233;28;20206;-78
2023/08/23 04:47:02;;;;;;;3.38;2.00;;;19.60;61.10;21.30;101840.00;;;;5050819;28;20211;-78
2023/08/23 04:49:31;;;;;;;2.00;1.80;;;19.60;61.20;21.30;101842.00;;;;5051176;28;20206;-78
2023/08/23 04:51:58;;;;;;;2.45;1.95;;;19.60;61.20;21.30;101837.00;;;;5050270;28;20187;-78
2023/08/23 04:54:25;;;;;;;2.90;2.25;;;19.60;61.20;21.30;101834.00;;;;5046749;28;21254;-78
2023/08/23 04:56:52;;;;;;;3.20;2.65;;;19.60;61.30;21.30;101839.00;;;;5048889;28;20196;-78
2023/08/23 04:59:19;;;;;;;3.00;2.17;;;19.60;61.30;21.30;101840.00;;;;5046570;28;20207;-80
2023/08/23 05:01:46;;;;;;;4.03;2.42;;;19.50;61.30;21.30;101832.00;;;;5039501;28;20196;-80
2023/08/23 05:04:13;;;;;;;3.33;2.58;;;19.60;61.40;21.30;101836.00;;;;5051566;28;20574;-79
2023/08/23 05:06:41;;;;;;;2.83;2.38;;;19.60;61.40;21.30;101834.00;;;;5050475;28;20270;-80
2023/08/23 05:09:08;;;;;;;2.90;2.30;;;19.60;61.50;21.30;101830.00;;;;5048356;28;20204;-76
2023/08/23 05:11:36;;;;;;;2.25;2.05;;;19.60;61.60;21.30;101835.00;;;;5038505;28;20246;-79
2023/08/23 05:14:03;;;;;;;3.60;2.30;;;19.60;61.60;21.30;101824.00;;;;5039709;28;20238;-79
2023/08/23 05:16:29;;;;;;;4.32;2.55;;;19.60;61.70;21.40;101827.00;;;;5044944;28;20211;-78
2023/08/23 05:18:56;;;;;;;2.45;2.25;;;19.60;61.70;21.40;101825.00;;;;5048119;28;20270;-81
2023/08/23 05:21:24;;;;;;;3.20;2.40;;;19.60;61.70;21.40;101838.00;;;;5051024;28;20204;-78
2023/08/23 05:23:52;;;;;;;3.08;2.63;;;19.60;61.80;21.40;101832.00;;;;5048118;28;20559;-80
2023/08/23 05:26:19;;;;;;;3.40;2.65;;;19.60;61.90;21.40;101825.00;;;;5040989;28;20223;-79
2023/08/23 05:28:46;;;;;;;3.50;2.65;;;19.60;61.90;21.40;101824.00;;;;5041968;28;20215;-81
2023/08/23 05:31:15;;;;;;;4.60;2.35;;;19.60;61.90;21.50;101832.00;;;;5045332;28;20191;-80
2023/08/23 05:33:42;;;;;;;4.40;3.33;;;19.70;62.10;21.50;101830.00;;;;5049021;28;20196;-81
2023/08/23 05:36:09;;;;;;;3.58;3.20;;;19.70;62.10;21.50;101829.00;;;;5047199;28;20192;-79
2023/08/23 05:38:36;;;;;;;3.70;3.20;;;19.80;62.30;21.60;101832.00;;;;5050011;28;20199;-82
2023/08/23 05:41:04;;;;;;;3.63;2.88;;;19.70;62.30;21.60;101831.00;;;;5043943;28;20203;-83
2023/08/23 05:43:31;;;;;;;4.00;2.80;;;19.80;62.50;21.70;101836.00;;;;5051352;28;20218;-82
2023/08/23 05:45:59;;;;;;;3.22;2.70;;;19.80;62.40;21.70;101829.00;;;;5043188;28;20200;-82
2023/08/23 05:48:26;;;;;;;4.25;3.22;;;19.90;62.70;21.80;101834.00;;;;5043838;28;20294;-83
2023/08/23 05:50:53;;;;;;;3.15;2.67;;;19.90;62.60;21.80;101833.00;;;;5047084;28;20567;-83
2023/08/23 05:53:21;;;;;;;3.15;2.40;;;20.00;62.70;21.90;101831.00;;;;5037008;28;20231;-80
2023/08/23 05:55:49;;;;;;;2.70;2.50;;;20.00;62.70;21.90;101831.00;;;;5040969;28;20223;-80
2023/08/23 05:58:18;;;;;;;3.33;2.65;;;20.10;62.70;22.00;101831.00;;;;5043393;28;20624;-81
2023/08/23 06:00:47;;;;;;;3.80;2.50;;;20.10;62.70;22.00;101837.00;;;;5039912;28;20231;-82
2023/08/23 06:03:15;;;;;;;4.80;3.55;;;20.20;62.80;22.10;101848.00;;;;5034856;28;20200;-80
2023/08/23 06:05:43;;;;;;;4.93;2.83;;;20.30;62.80;22.20;101846.00;;;;5046402;28;20199;-80
2023/08/23 06:08:10;;;;;;;5.68;3.60;;;20.30;62.90;22.20;101847.00;;;;5050190;28;20207;-80
2023/08/23 06:10:37;;;;;;;4.32;3.30;;;20.40;63.00;22.30;101840.00;;;;5050055;28;20192;-79
2023/08/23 06:13:04;;;;;;;4.65;3.10;;;20.50;63.10;22.40;101833.00;;;;5049109;28;20234;-80
2023/08/23 06:15:33;;;;;;;5.50;4.05;;;20.50;63.10;22.50;101832.00;;;;5050086;28;20863;-80
2023/08/23 06:18:00;;;;;;;6.70;4.75;;;20.60;63.30;22.50;101831.00;;;;5049792;28;20199;-80
2023/08/23 06:20:28;;;;;;;5.18;4.13;;;20.70;63.40;22.60;101832.00;;;;5047861;28;20202;-79
2023/08/23 06:22:55;;;;;;;4.05;3.60;;;20.80;63.50;22.70;101835.00;;;;5040259;28;20684;-80
2023/08/23 06:25:23;;;;;;;6.22;4.80;;;20.80;63.40;22.80;101841.00;;;;5039788;28;20206;-80
2023/08/23 06:27:50;;;;;;;5.30;4.20;;;21.00;63.60;22.90;101844.00;;;;5049781;28;20690;-80
2023/08/23 06:30:17;;;;;;;6.15;4.50;;;21.00;63.60;22.90;101844.00;;;;5049629;28;20196;-81
2023/08/23 06:32:47;;;;;;;5.47;4.35;;;21.10;63.60;23.00;101855.00;;;;5049545;28;20270;-80
2023/08/23 06:35:15;;;;;;;6.60;4.53;;;21.20;63.80;23.10;101847.00;;;;5046084;28;20595;-80
2023/08/23 06:37:42;;;;;;;5.28;3.60;;;21.30;63.70;23.20;101856.00;;;;5044870;28;20195;-80
2023/08/23 06:40:12;;;;;;;4.15;3.45;;;21.40;64.40;23.30;101855.00;;;;5047940;28;20195;-80
2023/08/23 06:42:39;;;;;;;6.40;4.70;;;21.50;63.70;23.40;101858.00;;;;5048028;28;20222;-80
2023/08/23 06:45:08;;;;;;;5.90;4.60;;;21.60;63.70;23.50;101857.00;;;;5043956;28;20205;-79
2023/08/23 06:47:35;;;;;;;6.45;3.80;;;21.60;63.60;23.50;101857.00;;;;5048025;28;20199;-79
2023/08/23 06:50:03;;;;;;;7.00;4.90;;;21.80;63.70;23.60;101869.00;;;;5048929;28;20199;-80
2023/08/23 06:52:30;;;;;;;5.95;4.30;;;21.80;63.60;23.70;101869.00;;;;5048539;28;20196;-78
2023/08/23 06:54:57;;;;;;;8.52;5.00;;;21.90;63.60;23.80;101874.00;;;;5034193;28;20224;-78
2023/08/23 06:57:29;;;;;;;5.60;4.60;;;22.00;63.60;23.90;101871.00;;;;5041604;28;20210;-78
2023/08/23 06:59:56;;;;;;;7.03;4.47;;;22.10;63.60;23.90;101864.00;;;;5049565;28;20214;-79
2023/08/23 07:02:24;;;;;;;6.07;4.30;;;22.20;63.60;24.00;101865.00;;;;5048363;28;20492;-79
2023/08/23 07:04:52;;;;;;;5.93;4.15;;;22.20;63.50;24.10;101856.00;;;;5040206;28;20226;-78
2023/08/23 07:07:21;;;;;;;6.95;4.07;;;22.30;63.50;24.20;101860.00;;;;5029809;28;20196;-78
2023/08/23 07:09:48;;;;;;;4.65;4.13;;;22.40;63.60;24.30;101873.00;;;;5034160;28;20195;-79
2023/08/23 07:12:15;;;;;;;6.50;4.20;;;22.50;63.60;24.40;101870.00;;;;5031480;28;20199;-79
2023/08/23 07:14:42;;;;;;;5.60;3.83;;;22.60;63.60;24.50;101872.00;;;;5038079;28;20227;-79
2023/08/23 07:17:09;;;;;;;4.20;3.55;;;22.70;63.60;24.60;101871.00;;;;5049095;28;20214;-79
2023/08/23 07:19:36;;;;;;;7.85;4.28;;;22.80;63.60;24.60;101889.00;;;;5048816;28;20204;-79
2023/08/23 07:22:04;;;;;;;5.47;4.28;;;22.90;63.50;24.70;101889.00;;;;5047314;28;20245;-79
2023/08/23 07:24:32;;;;;;;5.55;4.15;;;22.90;63.20;24.80;101882.00;;;;5048396;28;20196;-79
2023/08/23 07:26:59;;;;;;;6.07;4.38;;;23.00;63.20;24.90;101882.00;;;;5048653;28;20206;-79
2023/08/23 07:29:26;;;;;;;7.03;4.38;;;23.10;63.20;24.90;101882.00;;;;5029990;28;20200;-79
2023/08/23 07:31:54;;;;;;;7.65;4.20;;;23.20;63.00;25.00;101889.00;;;;5043163;28;20222;-79
2023/08/23 07:34:21;;;;;;;4.35;3.92;;;23.30;62.90;25.10;101890.00;;;;5048347;28;20901;-80
2023/08/23 07:36:48;;;;;;;5.35;3.58;;;23.40;62.90;25.20;101884.00;;;;5049365;28;20242;-78
2023/08/23 07:39:14;;;;;;;4.97;4.32;;;23.40;62.70;25.30;101885.00;;;;5046507;28;20194;-80
2023/08/23 07:41:43;;;;;;;4.97;3.78;;;23.50;62.70;25.30;101887.00;;;;5048211;28;20647;-80
2023/08/23 07:44:10;;;;;;;4.35;3.92;;;23.60;62.50;25.40;101890.00;;;;5047094;28;20195;-80
2023/08/23 07:46:37;;;;;;;5.20;3.92;;;23.70;62.40;25.50;101890.00;;;;5046517;28;20191;-80
2023/08/23 07:49:04;;;;;;;5.10;3.75;;;23.80;62.40;25.60;101883.00;;;;5032462;28;20207;-79
2023/08/23 07:51:31;;;;;;;5.45;3.33;;;23.80;62.40;25.70;101889.00;;;;5048456;28;20207;-80
2023/08/23 07:53:58;;;;;;;4.82;3.45;;;24.00;62.30;25.80;101893.00;;;;5046458;28;20218;-80
2023/08/23 07:56:24;;;;;;;3.75;3.30;;;24.00;62.20;25.80;101889.00;;;;5048206;28;20231;-80
2023/08/23 07:58:53;;;;;;;4.82;3.90;;;24.10;62.10;25.90;101893.00;;;;5046368;28;20202;-80
2023/08/23 08:01:20;;;;;;;5.35;3.85;;;24.20;62.00;26.00;101895.00;;;;5030687;28;20196;-81
2023/08/23 08:03:47;;;;;;;5.63;3.70;;;24.30;61.80;26.10;101891.00;;;;5047892;28;20202;-80
2023/08/23 08:06:14;;;;;;;5.82;3.42;;;24.40;61.70;26.20;101896.00;;;;5046939;28;20218;-80
2023/08/23 08:08:42;;;;;;;6.13;3.63;;;24.50;61.60;26.30;101902.00;;;;5047163;28;20206;-81
2023/08/23 08:11:11;;;;;;;5.78;3.78;;;24.50;61.40;26.30;101909.00;;;;5048679;28;20218;-80
2023/08/23 08:13:38;;;;;;;4.18;3.05;;;24.70;61.10;26.40;101912.00;;;;5046908;28;20243;-80
2023/08/23 08:16:11;;;;;;;3.90;2.92;;;24.80;61.00;26.40;101908.00;;;;5048071;28;20223;-80
2023/08/23 08:18:38;;;;;;;3.80;2.95;;;24.80;60.70;26.60;101914.00;;;;5033960;28;20223;-80
2023/08/23 08:21:06;;;;;;;3.88;2.72;;;24.90;60.70;26.70;101908.00;;;;5029599;28;20246;-80
2023/08/23 08:23:33;;;;;;;3.47;3.15;;;25.00;60.60;26.80;101910.00;;;;5048849;28;20211;-80
2023/08/23 08:26:00;;;;;;;3.38;2.25;;;25.10;60.40;26.80;101908.00;;;;5047858;28;20213;-80
2023/08/23 08:28:27;;;;;;;3.97;2.67;;;25.20;60.40;27.00;101911.00;;;;5048695;28;20668;-81
2023/08/23 08:30:54;;;;;;;4.45;3.05;;;25.30;60.20;27.00;101913.00;;;;5049356;28;20564;-81
2023/08/23 08:33:23;;;;;;;4.57;2.83;;;25.40;60.10;27.10;101916.00;;;;5048215;28;20196;-79
2023/08/23 08:35:50;;;;;;;4.57;2.65;;;25.50;60.10;27.20;101914.00;;;;5042509;28;20232;-80
2023/08/23 08:38:16;;;;;;;3.92;2.97;;;25.60;60.10;27.30;101908.00;;;;5027721;28;20207;-80
2023/08/23 08:40:46;;;;;;;3.75;2.50;;;25.70;59.90;27.40;101913.00;;;;5031866;28;20184;-79
2023/08/23 08:43:13;;;;;;;7.40;2.80;;;25.80;59.70;27.50;101915.00;;;;5048307;28;20207;-80
2023/08/23 08:45:40;;;;;;;3.60;2.17;;;25.80;59.60;27.60;101915.00;;;;5047797;28;20196;-80
2023/08/23 08:48:08;;;;;;;2.92;2.50;;;26.00;59.60;27.70;101919.00;;;;5046979;28;20207;-80
2023/08/23 08:50:37;;;;;;;2.50;2.30;;;26.10;59.50;27.80;101916.00;;;;5042602;28;20287;-80
2023/08/23 08:53:08;;;;;;;3.17;2.67;;;26.20;59.30;27.90;101921.00;;;;5046166;28;20210;-82
2023/08/23 08:55:36;;;;;;;3.08;2.70;;;26.30;59.20;28.00;101924.00;;;;5046092;28;20603;-80
2023/08/23 08:58:07;;;;;;;3.65;2.88;;;26.40;59.20;28.10;101913.00;;;;5038478;28;20200;-82
2023/08/23 09:00:36;;;;;;;3.22;2.88;;;26.50;59.20;28.20;101910.00;;;;5031751;28;20580;-81
2023/08/23 09:03:04;;;;;;;3.38;2.97;;;26.60;58.90;28.30;101908.00;;;;5047827;28;20682;-80
2023/08/23 09:05:33;;;;;;;3.30;2.70;;;26.70;58.70;28.40;101904.00;;;;5046423;28;20196;-82
2023/08/23 09:08:02;;;;;;;4.97;3.03;;;26.80;58.60;28.50;101896.00;;;;5045561;28;20195;-81
2023/08/23 09:10:29;;;;;;;3.30;1.83;;;26.90;58.60;28.70;101917.00;;;;5036384;28;20891;-81
2023/08/23 09:12:56;;;;;;;4.38;2.70;;;27.00;58.30;28.70;101912.00;;;;5032812;28;20734;-81
2023/08/23 09:15:24;;;;;;;3.28;2.20;;;27.20;58.10;28.90;101913.00;;;;5043089;28;20209;-81
2023/08/23 09:17:54;;;;;;;3.75;2.03;;;27.20;57.90;29.00;101914.00;;;;5041416;28;20204;-80
2023/08/23 09:20:22;;;;;;;4.60;1.75;;;27.30;57.40;29.00;101909.00;;;;5047339;28;20208;-80
2023/08/23 09:22:52;;;;;;;3.08;2.30;;;27.40;57.20;29.10;101915.00;;;;5031546;28;20205;-79
2023/08/23 09:25:24;;;;;;;3.63;2.53;;;27.50;56.70;29.10;101920.00;;;;5027831;28;20247;-80
2023/08/23 09:27:53;;;;;;;2.58;2.10;;;27.60;56.50;29.20;101911.00;;;;5044194;28;20203;-80
2023/08/23 09:30:20;;;;;;;5.57;2.58;;;27.70;56.60;29.30;101912.00;;;;5049974;28;20218;-80
2023/08/23 09:32:47;;;;;;;3.10;2.63;;;27.70;56.20;29.30;101910.00;;;;5051038;28;20754;-80
2023/08/23 09:35:16;;;;;;;4.18;2.05;;;27.80;56.10;29.40;101914.00;;;;5049781;28;20219;-79
2023/08/23 09:37:44;;;;;;;6.47;2.97;;;27.90;56.20;29.40;101914.00;;;;5030765;28;20581;-79
2023/08/23 09:40:22;;;;;;;3.72;2.20;;;27.90;56.10;29.50;101917.00;;;;5030967;28;20193;-79
2023/08/23 09:42:50;;;;;;;4.75;2.67;;;28.00;55.60;29.60;101920.00;;;;5048708;28;20923;-79
2023/08/23 09:45:20;;;;;;;2.70;2.08;;;28.10;56.00;29.70;101907.00;;;;5047223;28;20200;-80
2023/08/23 09:47:55;;;;;;;5.03;2.22;;;28.20;56.50;29.80;101910.00;;;;5041261;28;20346;-80
2023/08/23 09:50:25;;;;;;;2.13;1.92;;;28.30;55.40;29.90;101908.00;;;;5047607;28;20195;-79
2023/08/23 09:52:58;;;;;;;2.90;2.10;;;28.40;55.40;30.00;101910.00;;;;5049028;28;20200;-79
2023/08/23 09:55:27;;;;;;;2.05;1.83;;;28.50;55.10;30.00;101912.00;;;;5047432;28;20220;-80
2023/08/23 09:57:57;;;;;;;2.45;1.55;;;28.60;55.10;30.10;101912.00;;;;5047468;28;20206;-79
2023/08/23 10:00:24;;;;;;;3.05;2.15;;;28.70;54.90;30.20;101909.00;;;;5047798;28;21043;-80
2023/08/23 10:02:53;;;;;;;2.40;2.03;;;28.80;54.60;30.30;101911.00;;;;5048744;28;20204;-80
2023/08/23 10:05:21;;;;;;;5.05;2.42;;;28.90;54.40;30.40;101911.00;;;;5047659;28;20203;-79
2023/08/23 10:07:49;;;;;;;2.60;1.85;;;29.00;54.50;30.50;101912.00;;;;5049489;28;20206;-80
2023/08/23 10:10:16;;;;;;;3.95;2.17;;;29.00;54.20;30.60;101907.00;;;;5028684;28;20287;-80
2023/08/23 10:12:49;;;;;;;3.80;2.08;;;29.10;54.20;30.60;101905.00;;;;5036972;28;20204;-79
2023/08/23 10:15:20;;;;;;;5.60;1.83;;;29.20;53.90;30.70;101904.00;;;;5050349;28;20215;-80
2023/08/23 10:17:49;;;;;;;6.90;2.92;;;29.30;54.00;30.80;101904.00;;;;5043009;28;20200;-80
2023/08/23 10:20:16;;;;;;;3.50;2.08;;;29.40;53.00;30.80;101896.00;;;;5044452;28;20200;-80
2023/08/23 10:22:44;;;;;;;4.03;2.50;;;29.40;53.20;30.90;101903.00;;;;5049957;28;20208;-79
2023/08/23 10:25:17;;;;;;;3.67;2.00;;;29.50;53.00;30.90;101910.00;;;;5050312;28;20219;-80
2023/08/23 10:27:48;;;;;;;2.75;1.90;;;29.50;52.60;31.00;101912.00;;;;5050193;28;20195;-78
2023/08/23 10:30:24;;;;;;;3.67;2.88;;;29.60;52.80;31.00;101904.00;;;;5050290;28;20575;-78
2023/08/23 10:32:51;;;;;;;5.65;2.75;;;29.70;52.50;31.00;101908.00;;;;5049916;28;20235;-78
2023/08/23 10:35:24;;;;;;;3.92;2.90;;;29.70;52.80;31.00;101905.00;;;;5049039;28;20211;-80
2023/08/23 10:37:54;;;;;;;2.72;2.20;;;29.80;52.20;31.10;101900.00;;;;5044461;28;20223;-79
2023/08/23 10:40:22;;;;;;;3.03;2.05;;;29.80;52.30;31.10;101894.00;;;;5048678;28;20786;-80
2023/08/23 10:42:51;;;;;;;2.70;2.33;;;29.80;52.20;31.20;101890.00;;;;5049923;28;20744;-79
2023/08/23 10:45:18;;;;;;;2.97;2.20;;;29.90;52.20;31.20;101888.00;;;;5049827;28;20203;-78
2023/08/23 10:47:50;;;;;;;4.38;2.30;;;29.90;52.30;31.20;101886.00;;;;5047825;28;20194;-79
2023/08/23 10:50:18;;;;;;;5.05;1.92;;;29.90;52.10;31.30;101892.00;;;;5047992;28;20241;-79